createdAt,value
2022-09-28T00:02:26.787Z,10.30
2022-09-28T00:04:53.785Z,10.28
2022-09-28T00:07:20.733Z,10.27
2022-09-28T00:09:47.763Z,10.25
2022-09-28T00:12:14.923Z,10.22
2022-09-28T00:14:43.444Z,10.20
2022-09-28T00:17:12.403Z,10.23
2022-09-28T00:19:40.586Z,10.19
2022-09-28T00:22:07.571Z,10.19
2022-09-28T00:24:34.563Z,10.23
2022-09-28T00:27:03.085Z,10.18
2022-09-28T00:29:31.964Z,10.18
2022-09-28T00:32:05.223Z,10.18
2022-09-28T00:34:46.179Z,10.15
2022-09-28T00:37:15.346Z,10.12
2022-09-28T00:39:42.342Z,10.13
2022-09-28T00:42:15.487Z,10.13
2022-09-28T00:44:59.323Z,10.09
2022-09-28T00:47:44.583Z,10.07
2022-09-28T00:50:27.108Z,10.10
2022-09-28T00:53:12.543Z,10.12
2022-09-28T00:55:44.783Z,10.11
2022-09-28T00:58:15.403Z,10.10
2022-09-28T01:00:42.853Z,10.08
2022-09-28T01:03:10.543Z,10.02
2022-09-28T01:05:39.944Z,10.05
2022-09-28T01:08:08.992Z,10.09
2022-09-28T01:10:36.027Z,10.11
2022-09-28T01:13:03.182Z,10.08
2022-09-28T01:15:31.392Z,10.04
2022-09-28T01:18:19.284Z,10.07
2022-09-28T01:20:57.386Z,10.00
2022-09-28T01:23:59.703Z,9.88
2022-09-28T01:26:44.263Z,9.76
2022-09-28T01:29:21.426Z,9.72
2022-09-28T01:32:06.888Z,9.61
2022-09-28T01:34:47.163Z,9.66
2022-09-28T01:37:19.863Z,9.66
2022-09-28T01:39:50.384Z,9.65
2022-09-28T01:42:24.283Z,9.67
2022-09-28T01:44:54.703Z,9.66
2022-09-28T01:47:24.344Z,9.62
2022-09-28T01:49:59.462Z,9.63
2022-09-28T01:52:34.524Z,9.62
2022-09-28T01:55:31.166Z,9.58
2022-09-28T01:58:05.864Z,9.54
2022-09-28T02:00:36.459Z,9.56
2022-09-28T02:03:14.031Z,9.55
2022-09-28T02:05:55.704Z,9.53
2022-09-28T02:08:33.650Z,9.54
2022-09-28T02:11:05.142Z,9.50
2022-09-28T02:13:37.783Z,9.47
2022-09-28T02:16:31.622Z,9.43
2022-09-28T02:18:59.043Z,9.36
2022-09-28T02:21:54.686Z,9.38
2022-09-28T02:24:37.805Z,9.36
2022-09-28T02:27:15.883Z,9.26
2022-09-28T02:29:43.324Z,9.20
2022-09-28T02:32:11.443Z,9.13
2022-09-28T02:34:38.605Z,9.19
2022-09-28T02:37:05.983Z,9.11
2022-09-28T02:39:33.104Z,9.15
2022-09-28T02:42:00.065Z,9.12
2022-09-28T02:44:40.849Z,9.10
2022-09-28T02:47:23.193Z,9.09
2022-09-28T02:50:09.684Z,9.07
2022-09-28T02:53:14.527Z,9.08
2022-09-28T02:56:16.683Z,9.01
2022-09-28T02:58:58.903Z,8.92
2022-09-28T03:01:40.011Z,8.94
2022-09-28T03:04:13.063Z,8.93
2022-09-28T03:06:57.724Z,8.93
2022-09-28T03:09:37.763Z,8.95
2022-09-28T03:12:14.364Z,8.96
2022-09-28T03:14:42.396Z,9.01
2022-09-28T03:17:09.563Z,9.00
2022-09-28T03:19:37.331Z,9.02
2022-09-28T03:22:05.850Z,8.97
2022-09-28T03:24:33.123Z,8.83
2022-09-28T03:27:00.164Z,8.81
2022-09-28T03:29:27.207Z,8.82
2022-09-28T03:32:00.101Z,8.81
2022-09-28T03:34:27.232Z,8.82
2022-09-28T03:36:54.603Z,8.76
2022-09-28T03:39:21.651Z,8.77
2022-09-28T03:41:48.604Z,8.80
2022-09-28T03:44:17.766Z,8.81
2022-09-28T03:46:44.924Z,8.81
2022-09-28T03:49:12.103Z,8.78
2022-09-28T03:51:39.071Z,8.73
2022-09-28T03:54:06.173Z,8.66
2022-09-28T03:56:33.569Z,8.55
2022-09-28T03:59:03.697Z,8.56
2022-09-28T04:01:32.765Z,8.56
2022-09-28T04:04:00.345Z,8.51
2022-09-28T04:06:27.726Z,8.50
2022-09-28T04:08:54.883Z,8.50
2022-09-28T04:11:21.943Z,8.46
2022-09-28T04:13:52.605Z,8.40
2022-09-28T04:16:19.869Z,8.41
2022-09-28T04:19:09.336Z,8.34
2022-09-28T04:21:52.386Z,8.31
2022-09-28T04:24:20.509Z,8.27
2022-09-28T04:26:47.682Z,8.32
2022-09-28T04:29:17.867Z,8.30
2022-09-28T04:32:06.041Z,8.27
2022-09-28T04:34:38.777Z,8.25
2022-09-28T04:37:09.138Z,8.26
2022-09-28T04:39:38.440Z,8.25
2022-09-28T04:42:06.377Z,8.25
2022-09-28T04:44:33.408Z,8.25
2022-09-28T04:47:06.427Z,8.28
2022-09-28T04:49:35.671Z,8.25
2022-09-28T04:52:18.681Z,8.24
2022-09-28T04:54:48.807Z,8.25
2022-09-28T04:57:16.664Z,8.29
2022-09-28T04:59:43.745Z,8.30
2022-09-28T05:02:11.076Z,8.31
2022-09-28T05:04:59.089Z,8.20
2022-09-28T05:07:34.863Z,8.16
2022-09-28T05:10:04.459Z,8.14
2022-09-28T05:12:32.972Z,8.16
2022-09-28T05:15:00.787Z,8.20
2022-09-28T05:17:28.024Z,8.17
2022-09-28T05:20:21.045Z,8.18
2022-09-28T05:22:48.134Z,8.21
2022-09-28T05:25:15.247Z,8.30
2022-09-28T05:28:08.653Z,8.32
2022-09-28T05:31:02.390Z,8.33
2022-09-28T05:33:47.775Z,8.35
2022-09-28T05:36:14.915Z,8.39
2022-09-28T05:38:43.106Z,8.50
2022-09-28T05:41:10.136Z,8.61
2022-09-28T05:43:38.571Z,8.70
2022-09-28T05:46:06.737Z,8.87
2022-09-28T05:48:36.004Z,9.10
2022-09-28T05:51:03.194Z,9.35
2022-09-28T05:53:30.453Z,9.53
2022-09-28T05:55:59.896Z,9.71
2022-09-28T05:58:28.508Z,9.89
2022-09-28T06:00:56.577Z,9.97
2022-09-28T06:03:24.439Z,10.01
2022-09-28T06:05:51.746Z,10.10
2022-09-28T06:08:18.764Z,10.18
2022-09-28T06:10:51.775Z,10.20
2022-09-28T06:13:18.837Z,10.30
2022-09-28T06:15:46.575Z,10.41
2022-09-28T06:18:15.171Z,10.47
2022-09-28T06:21:01.316Z,10.59
2022-09-28T06:23:33.024Z,10.64
2022-09-28T06:26:00.477Z,10.71
2022-09-28T06:28:27.944Z,10.71
2022-09-28T06:30:56.080Z,10.82
2022-09-28T06:33:25.628Z,10.91
2022-09-28T06:35:53.452Z,11.02
2022-09-28T06:38:20.613Z,11.09
2022-09-28T06:40:49.044Z,11.12
2022-09-28T06:43:16.316Z,11.17
2022-09-28T06:46:02.864Z,11.20
2022-09-28T06:48:50.137Z,11.22
2022-09-28T06:51:37.118Z,11.15
2022-09-28T06:54:20.006Z,11.19
2022-09-28T06:56:50.479Z,11.19
2022-09-28T06:59:19.294Z,11.30
2022-09-28T07:01:46.957Z,11.44
2022-09-28T07:04:28.187Z,11.52
2022-09-28T07:07:14.348Z,11.53
2022-09-28T07:10:01.470Z,11.52
2022-09-28T07:12:37.481Z,11.61
2022-09-28T07:15:20.621Z,11.70
2022-09-28T07:18:00.344Z,11.76
2022-09-28T07:20:30.114Z,11.97
2022-09-28T07:23:14.693Z,12.09
2022-09-28T07:26:24.800Z,12.18
2022-09-28T07:29:13.365Z,12.16
2022-09-28T07:31:58.737Z,12.16
2022-09-28T07:34:43.925Z,12.22
2022-09-28T07:37:46.757Z,12.35
2022-09-28T07:40:32.595Z,12.46
2022-09-28T07:43:07.279Z,12.59
2022-09-28T07:45:36.817Z,12.67
2022-09-28T07:48:04.339Z,12.78
2022-09-28T07:50:55.296Z,12.92
2022-09-28T07:53:40.987Z,13.03
2022-09-28T07:56:35.058Z,13.14
2022-09-28T07:59:08.044Z,13.24
2022-09-28T08:01:53.689Z,13.40
2022-09-28T08:04:21.087Z,13.46
2022-09-28T08:06:48.527Z,13.53
2022-09-28T08:09:15.644Z,13.67
2022-09-28T08:12:19.886Z,13.85
2022-09-28T08:15:23.103Z,13.97
2022-09-28T08:18:00.515Z,14.09
2022-09-28T08:20:51.594Z,14.18
2022-09-28T08:23:20.168Z,14.30
2022-09-28T08:25:49.267Z,14.44
2022-09-28T08:28:18.226Z,14.47
2022-09-28T08:30:48.268Z,14.57
2022-09-28T08:33:27.698Z,14.61
2022-09-28T08:36:13.505Z,14.77
2022-09-28T08:39:03.248Z,14.98
2022-09-28T08:42:21.389Z,15.16
2022-09-28T08:45:28.946Z,14.98
2022-09-28T08:48:42.636Z,15.23
2022-09-28T08:51:46.095Z,15.50
2022-09-28T08:54:30.828Z,15.72
2022-09-28T08:57:12.565Z,15.81
2022-09-28T08:59:48.664Z,15.94
2022-09-28T09:02:25.929Z,16.02
2022-09-28T09:04:58.351Z,16.12
2022-09-28T09:08:11.114Z,16.27
2022-09-28T09:10:51.045Z,16.36
2022-09-28T09:13:55.244Z,16.25
2022-09-28T09:17:00.005Z,16.44
2022-09-28T09:19:55.153Z,16.23
2022-09-28T09:23:06.345Z,16.61
2022-09-28T09:25:46.475Z,16.67
2022-09-28T09:28:42.253Z,16.79
2022-09-28T09:31:52.098Z,16.78
2022-09-28T09:34:43.182Z,16.82
2022-09-28T09:37:40.898Z,16.66
2022-09-28T09:40:49.465Z,16.62
2022-09-28T09:44:00.524Z,16.59
2022-09-28T09:47:08.259Z,16.51
2022-09-28T09:50:35.725Z,16.40
2022-09-28T09:53:24.497Z,16.29
2022-09-28T09:55:58.719Z,16.25
2022-09-28T09:58:46.360Z,16.36
2022-09-28T10:01:29.789Z,16.53
2022-09-28T10:04:39.891Z,16.57
2022-09-28T10:07:31.988Z,16.60
2022-09-28T10:10:02.590Z,16.63
2022-09-28T10:12:41.315Z,16.57
2022-09-28T10:15:15.489Z,16.51
2022-09-28T10:17:58.483Z,16.48
2022-09-28T10:20:51.489Z,16.28
2022-09-28T10:23:34.078Z,16.28
2022-09-28T10:26:07.730Z,16.27
2022-09-28T10:28:48.416Z,16.32
2022-09-28T10:31:38.804Z,16.32
2022-09-28T10:34:17.321Z,16.31
2022-09-28T10:36:53.170Z,16.26
2022-09-28T10:39:50.991Z,16.18
2022-09-28T10:42:26.000Z,16.10
2022-09-28T10:45:05.480Z,16.09
2022-09-28T10:47:35.821Z,16.12
2022-09-28T10:50:20.679Z,16.10
2022-09-28T10:52:48.415Z,16.12
2022-09-28T10:55:59.409Z,16.15
2022-09-28T10:58:40.656Z,16.31
2022-09-28T11:13:30.369Z,16.12
2022-09-28T11:16:05.611Z,16.33
2022-09-28T11:18:35.552Z,16.56
2022-09-28T11:21:15.072Z,16.96
2022-09-28T11:24:06.621Z,17.16
2022-09-28T11:26:43.768Z,17.38
2022-09-28T11:29:34.969Z,17.68
2022-09-28T11:32:22.060Z,17.88
2022-09-28T11:35:22.466Z,17.98
2022-09-28T11:38:19.509Z,18.03
2022-09-28T11:41:29.463Z,18.02
2022-09-28T11:44:28.184Z,17.93
2022-09-28T11:47:28.140Z,17.89
2022-09-28T11:50:25.758Z,17.55
2022-09-28T11:53:13.027Z,17.58
2022-09-28T11:55:50.029Z,17.92
2022-09-28T11:58:33.755Z,18.09
2022-09-28T12:01:28.025Z,18.52
2022-09-28T12:04:31.821Z,19.27
2022-09-28T12:07:11.229Z,19.52
2022-09-28T12:09:46.110Z,19.92
2022-09-28T12:12:32.888Z,20.41
2022-09-28T12:15:12.828Z,20.92
2022-09-28T12:17:45.964Z,21.42
2022-09-28T12:20:38.626Z,21.61
2022-09-28T12:23:12.475Z,21.59
2022-09-28T12:25:47.020Z,22.03
2022-09-28T12:28:28.810Z,22.18
2022-09-28T12:31:06.496Z,22.73
2022-09-28T12:33:33.623Z,22.99
2022-09-28T12:36:30.511Z,23.30
2022-09-28T12:39:18.056Z,23.37
2022-09-28T12:42:17.260Z,23.02
2022-09-28T12:44:57.218Z,22.85
2022-09-28T12:47:44.769Z,23.13
2022-09-28T12:50:39.630Z,23.25
2022-09-28T12:53:14.243Z,23.19
2022-09-28T12:55:59.259Z,22.56
2022-09-28T12:58:29.023Z,22.80
2022-09-28T13:01:01.931Z,22.52
2022-09-28T13:03:45.994Z,22.33
2022-09-28T13:06:28.373Z,21.94
2022-09-28T13:09:17.361Z,21.88
2022-09-28T13:12:09.220Z,21.59
2022-09-28T13:14:54.283Z,21.26
2022-09-28T13:17:40.119Z,21.26
2022-09-28T13:20:18.322Z,21.04
2022-09-28T13:22:49.793Z,20.82
2022-09-28T13:25:20.703Z,20.44
2022-09-28T13:28:06.029Z,20.33
2022-09-28T13:30:36.591Z,20.19
2022-09-28T13:33:07.591Z,19.96
2022-09-28T13:35:35.170Z,19.94
2022-09-28T13:38:21.061Z,20.02
2022-09-28T13:41:06.943Z,19.88
2022-09-28T13:43:36.891Z,19.75
2022-09-28T13:46:20.611Z,19.68
2022-09-28T13:49:16.831Z,19.50
2022-09-28T13:52:17.150Z,19.20
2022-09-28T13:55:17.520Z,18.61
2022-09-28T13:58:21.305Z,18.69
2022-09-28T14:01:01.438Z,18.41
2022-09-28T14:03:37.351Z,18.45
2022-09-28T14:06:11.178Z,18.38
2022-09-28T14:09:05.769Z,18.25
2022-09-28T14:11:34.514Z,18.20
2022-09-28T14:14:14.387Z,17.97
2022-09-28T14:16:42.540Z,17.98
2022-09-28T14:19:21.871Z,17.88
2022-09-28T14:21:58.551Z,17.78
2022-09-28T14:24:37.659Z,17.69
2022-09-28T14:27:34.830Z,17.63
2022-09-28T14:30:14.271Z,17.56
2022-09-28T14:32:46.590Z,17.45
2022-09-28T14:35:36.671Z,17.40
2022-09-28T14:38:44.410Z,17.34
2022-09-28T14:41:18.249Z,17.24
2022-09-28T14:43:45.163Z,17.15
2022-09-28T14:46:12.404Z,17.07
2022-09-28T14:48:53.993Z,17.03
2022-09-28T14:51:27.162Z,17.01
2022-09-28T14:54:00.583Z,17.06
2022-09-28T14:56:32.710Z,17.06
2022-09-28T14:59:00.861Z,17.01
2022-09-28T15:01:28.084Z,16.97
2022-09-28T15:03:59.236Z,16.97
2022-09-28T15:06:52.053Z,16.88
2022-09-28T15:09:30.555Z,16.80
2022-09-28T15:12:18.281Z,16.76
2022-09-28T15:14:51.501Z,16.69
2022-09-28T15:17:34.612Z,16.64
2022-09-28T15:20:30.671Z,16.69
2022-09-28T15:22:59.834Z,16.69
2022-09-28T15:25:29.765Z,16.55
2022-09-28T15:27:59.311Z,16.63
2022-09-28T15:30:32.489Z,16.62
2022-09-28T15:33:20.000Z,16.63
2022-09-28T15:36:02.294Z,16.68
2022-09-28T15:38:31.448Z,16.71
2022-09-28T15:40:58.883Z,16.64
2022-09-28T15:43:33.389Z,16.66
2022-09-28T15:46:13.756Z,16.66
2022-09-28T15:48:59.757Z,16.63
2022-09-28T15:51:28.674Z,16.62
2022-09-28T15:54:01.569Z,16.57
2022-09-28T15:56:29.192Z,16.53
2022-09-28T15:59:25.721Z,16.51
2022-09-28T16:02:10.089Z,16.49
2022-09-28T16:04:48.371Z,16.45
2022-09-28T16:07:19.729Z,16.41
2022-09-28T16:09:56.972Z,16.33
2022-09-28T16:12:25.441Z,16.32
2022-09-28T16:14:54.519Z,16.28
2022-09-28T16:17:33.822Z,16.24
2022-09-28T16:20:29.669Z,16.21
2022-09-28T16:23:06.082Z,16.17
2022-09-28T16:25:37.309Z,16.13
2022-09-28T16:28:05.770Z,16.08
2022-09-28T16:30:34.303Z,16.04
2022-09-28T16:33:25.913Z,15.99
2022-09-28T16:35:52.990Z,15.96
2022-09-28T16:38:20.654Z,15.95
2022-09-28T16:40:54.848Z,15.93
2022-09-28T16:43:27.177Z,15.91
2022-09-28T16:46:00.288Z,15.86
2022-09-28T16:48:30.170Z,15.88
2022-09-28T16:50:58.192Z,15.89
2022-09-28T16:53:44.499Z,15.90
2022-09-28T16:56:12.848Z,15.85
2022-09-28T16:58:39.848Z,15.84
2022-09-28T17:01:10.173Z,15.82
2022-09-28T17:03:37.231Z,15.81
2022-09-28T17:06:06.408Z,15.81
2022-09-28T17:08:35.780Z,15.75
2022-09-28T17:11:14.963Z,15.78
2022-09-28T17:13:46.049Z,15.76
2022-09-28T17:16:18.063Z,15.75
2022-09-28T17:18:46.192Z,15.73
2022-09-28T17:21:16.013Z,15.71
2022-09-28T17:23:44.060Z,15.70
2022-09-28T17:26:28.111Z,15.68
2022-09-28T17:28:55.169Z,15.66
2022-09-28T17:31:22.368Z,15.66
2022-09-28T17:33:49.389Z,15.64
2022-09-28T17:36:18.438Z,15.63
2022-09-28T17:38:47.119Z,15.61
2022-09-28T17:41:20.370Z,15.57
2022-09-28T17:43:48.369Z,15.56
2022-09-28T17:46:29.105Z,15.55
2022-09-28T17:48:59.800Z,15.55
2022-09-28T17:51:28.589Z,15.54
2022-09-28T17:53:56.690Z,15.56
2022-09-28T17:56:27.568Z,15.53
2022-09-28T17:59:01.502Z,15.56
2022-09-28T18:01:34.572Z,15.56
2022-09-28T18:04:07.689Z,15.54
2022-09-28T18:06:35.410Z,15.52
2022-09-28T18:09:03.564Z,15.49
2022-09-28T18:11:30.680Z,15.47
2022-09-28T18:13:57.760Z,15.43
2022-09-28T18:16:26.219Z,15.39
2022-09-28T18:18:53.443Z,15.36
2022-09-28T18:21:20.501Z,15.30
2022-09-28T18:23:47.399Z,15.29
2022-09-28T18:26:16.977Z,15.28
2022-09-28T18:28:43.934Z,15.25
2022-09-28T18:31:13.040Z,15.23
2022-09-28T18:33:41.752Z,15.20
2022-09-28T18:36:08.811Z,15.20
2022-09-28T18:38:36.629Z,15.19
2022-09-28T18:41:10.678Z,15.19
2022-09-28T18:43:37.940Z,15.17
2022-09-28T18:46:09.624Z,15.16
2022-09-28T18:48:41.815Z,15.17
2022-09-28T18:51:11.468Z,15.13
2022-09-28T18:53:38.926Z,15.11
2022-09-28T18:56:08.521Z,15.12
2022-09-28T18:58:39.587Z,15.12
2022-09-28T19:01:29.046Z,15.10
2022-09-28T19:03:58.410Z,15.05
2022-09-28T19:06:25.589Z,15.08
2022-09-28T19:08:56.032Z,15.06
2022-09-28T19:11:24.789Z,15.05
2022-09-28T19:13:54.179Z,15.05
2022-09-28T19:16:24.371Z,15.02
2022-09-28T19:18:53.859Z,15.01
2022-09-28T19:21:21.476Z,14.99
2022-09-28T19:23:52.216Z,14.96
2022-09-28T19:26:25.868Z,14.96
2022-09-28T19:28:53.619Z,14.95
2022-09-28T19:31:20.809Z,14.87
2022-09-28T19:33:48.449Z,14.86
2022-09-28T19:36:18.608Z,14.86
2022-09-28T19:38:46.576Z,14.85
2022-09-28T19:41:42.806Z,14.84
2022-09-28T19:44:25.472Z,14.83
2022-09-28T19:46:54.048Z,14.80
2022-09-28T19:49:22.805Z,14.81
2022-09-28T19:52:11.654Z,14.79
2022-09-28T19:54:39.901Z,14.77
2022-09-28T19:57:08.902Z,14.77
2022-09-28T19:59:37.710Z,14.77
2022-09-28T20:02:08.741Z,14.76
2022-09-28T20:04:35.847Z,14.78
2022-09-28T20:07:04.354Z,14.78
2022-09-28T20:09:32.782Z,14.79
2022-09-28T20:11:59.880Z,14.76
2022-09-28T20:14:32.166Z,14.76
2022-09-28T20:17:03.826Z,14.75
2022-09-28T20:19:30.859Z,14.75
2022-09-28T20:22:02.270Z,14.76
2022-09-28T20:24:29.503Z,14.74
2022-09-28T20:26:56.538Z,14.74
2022-09-28T20:29:24.464Z,14.72
2022-09-28T20:31:52.169Z,14.73
2022-09-28T20:34:19.426Z,14.69
2022-09-28T20:36:46.530Z,14.70
2022-09-28T20:39:13.909Z,14.71
2022-09-28T20:41:41.374Z,14.70
2022-09-28T20:44:08.913Z,14.67
2022-09-28T20:46:36.644Z,14.67
2022-09-28T20:49:05.249Z,14.68
2022-09-28T20:51:32.769Z,14.66
2022-09-28T20:54:00.829Z,14.67
2022-09-28T20:56:30.799Z,14.68
2022-09-28T20:58:57.949Z,14.65
2022-09-28T21:01:27.295Z,14.66
2022-09-28T21:03:56.255Z,14.64
2022-09-28T21:06:28.517Z,14.60
2022-09-28T21:08:56.071Z,14.61
2022-09-28T21:11:26.128Z,14.61
2022-09-28T21:13:55.429Z,14.57
2022-09-28T21:16:22.361Z,14.53
2022-09-28T21:18:49.380Z,14.54
2022-09-28T21:21:19.169Z,14.49
2022-09-28T21:23:46.850Z,14.48
2022-09-28T21:26:19.069Z,14.48
2022-09-28T21:28:46.839Z,14.48
2022-09-28T21:31:14.792Z,14.46
2022-09-28T21:33:41.839Z,14.46
2022-09-28T21:36:09.273Z,14.48
2022-09-28T21:38:36.330Z,14.47
2022-09-28T21:41:03.822Z,14.48
2022-09-28T21:43:31.901Z,14.48
2022-09-28T21:45:59.108Z,14.49
2022-09-28T21:48:27.829Z,14.48
2022-09-28T21:50:58.794Z,14.46
2022-09-28T21:53:28.309Z,14.47
2022-09-28T21:55:56.697Z,14.48
2022-09-28T21:58:26.130Z,14.49
2022-09-28T22:00:59.770Z,14.45
2022-09-28T22:03:27.136Z,14.47
2022-09-28T22:05:54.310Z,14.48
2022-09-28T22:08:21.748Z,14.47
2022-09-28T22:11:07.470Z,14.47
2022-09-28T22:13:49.111Z,14.49
2022-09-28T22:16:18.040Z,14.47
2022-09-28T22:18:45.848Z,14.47
2022-09-28T22:21:15.924Z,14.47
2022-09-28T22:23:43.031Z,14.45
2022-09-28T22:26:18.170Z,14.44
2022-09-28T22:28:47.429Z,14.43
2022-09-28T22:31:15.893Z,14.45
2022-09-28T22:33:43.010Z,14.48
2022-09-28T22:36:10.279Z,14.51
2022-09-28T22:38:37.849Z,14.50
2022-09-28T22:41:04.840Z,14.47
2022-09-28T22:43:32.010Z,14.48
2022-09-28T22:46:14.256Z,14.51
2022-09-28T22:48:42.680Z,14.55
2022-09-28T22:51:10.001Z,14.53
2022-09-28T22:53:37.020Z,14.57
2022-09-28T22:56:07.749Z,14.57
2022-09-28T22:58:36.378Z,14.58
2022-09-28T23:01:22.310Z,14.57
2022-09-28T23:03:50.803Z,14.56
2022-09-28T23:06:19.080Z,14.57
2022-09-28T23:08:47.588Z,14.54
2022-09-28T23:11:15.753Z,14.58
2022-09-28T23:13:42.708Z,14.61
2022-09-28T23:16:12.873Z,14.65
2022-09-28T23:18:43.969Z,14.63
2022-09-28T23:21:15.436Z,14.61
2022-09-28T23:23:46.475Z,14.56
2022-09-28T23:26:15.908Z,14.56
2022-09-28T23:28:55.994Z,14.54
2022-09-28T23:31:26.233Z,14.55
2022-09-28T23:33:57.688Z,14.56
2022-09-28T23:36:25.527Z,14.55
2022-09-28T23:38:53.195Z,14.57
2022-09-28T23:41:20.376Z,14.54
2022-09-28T23:43:47.430Z,14.56
2022-09-28T23:46:19.679Z,14.54
2022-09-28T23:48:48.007Z,14.40
2022-09-28T23:51:14.950Z,14.46
2022-09-28T23:53:43.451Z,14.48
2022-09-28T23:56:10.528Z,14.50
2022-09-28T23:58:37.709Z,14.46
